createdAt,value
2022-11-05T00:02:58.916Z,7.70
2022-11-05T00:08:23.218Z,7.60
2022-11-05T00:13:44.862Z,7.80
2022-11-05T00:19:06.601Z,8.40
2022-11-05T00:24:38.858Z,6.90
2022-11-05T00:29:41.752Z,7.10
2022-11-05T00:34:44.591Z,8.40
2022-11-05T00:39:47.513Z,7.70
2022-11-05T00:45:02.654Z,8.40
2022-11-05T00:50:05.939Z,7.30
2022-11-05T00:55:08.973Z,9.30
2022-11-05T01:00:12.929Z,7.40
2022-11-05T01:05:16.146Z,8.20
2022-11-05T01:10:19.622Z,8.60
2022-11-05T01:15:23.081Z,7.60
2022-11-05T01:20:26.864Z,8.10
2022-11-05T01:25:29.956Z,8.20
2022-11-05T01:30:33.199Z,7.90
2022-11-05T01:35:36.142Z,8.00
2022-11-05T01:40:43.244Z,8.60
2022-11-05T01:45:51.269Z,8.30
2022-11-05T01:51:04.697Z,7.50
2022-11-05T01:56:53.885Z,7.50
2022-11-05T02:01:57.196Z,7.00
2022-11-05T02:07:00.564Z,8.40
2022-11-05T02:12:04.013Z,7.90
2022-11-05T02:17:32.655Z,9.40
2022-11-05T02:23:18.800Z,8.20
2022-11-05T02:29:08.331Z,12.70
2022-11-05T02:34:28.457Z,11.80
2022-11-05T02:39:58.999Z,10.10
2022-11-05T02:45:25.845Z,10.70
2022-11-05T02:50:44.709Z,8.70
2022-11-05T02:55:59.436Z,10.80
2022-11-05T03:01:06.914Z,12.00
2022-11-05T03:06:34.166Z,14.10
2022-11-05T03:12:21.662Z,13.60
2022-11-05T03:17:44.805Z,12.00
2022-11-05T03:23:14.454Z,13.50
2022-11-05T03:28:24.484Z,14.90
2022-11-05T03:33:31.445Z,13.80
2022-11-05T03:38:40.131Z,11.60
2022-11-05T03:43:50.208Z,12.40
2022-11-05T03:48:57.148Z,12.90
2022-11-05T03:54:04.136Z,13.10
2022-11-05T03:59:10.173Z,12.40
2022-11-05T04:04:13.097Z,13.00
2022-11-05T04:09:34.967Z,11.80
2022-11-05T04:14:39.494Z,15.60
2022-11-05T04:20:03.345Z,14.80
2022-11-05T04:25:06.596Z,13.10
2022-11-05T04:30:18.968Z,13.70
2022-11-05T04:35:22.243Z,16.00
2022-11-05T04:40:25.830Z,13.70
2022-11-05T04:45:33.090Z,13.30
2022-11-05T04:50:36.200Z,14.80
2022-11-05T04:55:39.022Z,14.80
2022-11-05T05:00:42.295Z,11.60
2022-11-05T05:05:45.319Z,17.00
2022-11-05T05:10:48.218Z,14.00
2022-11-05T05:15:51.122Z,14.80
2022-11-05T05:21:30.006Z,15.20
2022-11-05T05:26:32.867Z,14.30
2022-11-05T05:31:36.352Z,14.10
2022-11-05T05:36:39.426Z,16.00
2022-11-05T05:41:42.293Z,16.10
2022-11-05T05:46:45.297Z,12.00
2022-11-05T05:51:49.644Z,14.80
2022-11-05T05:56:52.538Z,17.60
2022-11-05T06:01:55.527Z,17.10
2022-11-05T06:06:58.666Z,16.60
2022-11-05T06:12:01.590Z,16.70
2022-11-05T06:17:04.506Z,19.00
2022-11-05T06:22:07.525Z,19.20
2022-11-05T06:27:10.420Z,17.50
2022-11-05T06:32:13.296Z,18.10
2022-11-05T06:37:16.277Z,17.90
2022-11-05T06:42:19.572Z,14.70
2022-11-05T06:47:22.551Z,17.90
2022-11-05T06:52:27.287Z,14.70
2022-11-05T06:57:30.184Z,15.80
2022-11-05T07:02:33.141Z,14.70
2022-11-05T07:07:36.046Z,16.30
2022-11-05T07:12:39.056Z,18.40
2022-11-05T07:17:45.235Z,17.80
2022-11-05T07:22:48.185Z,17.30
2022-11-05T07:27:51.269Z,16.00
2022-11-05T07:32:54.133Z,17.50
2022-11-05T07:37:57.364Z,20.80
2022-11-05T07:43:02.233Z,19.90
2022-11-05T07:48:06.082Z,22.70
2022-11-05T07:53:15.184Z,15.80
2022-11-05T07:58:18.936Z,21.00
2022-11-05T08:03:21.947Z,28.70
2022-11-05T08:08:25.389Z,23.80
2022-11-05T08:13:28.846Z,21.40
2022-11-05T08:18:33.161Z,20.90
2022-11-05T08:23:36.172Z,28.70
2022-11-05T08:28:39.109Z,34.40
2022-11-05T08:33:42.716Z,28.00
2022-11-05T08:38:45.570Z,29.40
2022-11-05T08:43:48.542Z,36.60
2022-11-05T08:48:51.388Z,31.60
2022-11-05T08:53:54.385Z,28.50
2022-11-05T08:58:57.252Z,26.40
2022-11-05T09:04:00.401Z,31.40
2022-11-05T09:09:03.865Z,29.40
2022-11-05T09:14:07.060Z,26.50
2022-11-05T09:19:10.685Z,29.10
2022-11-05T09:24:13.831Z,34.40
2022-11-05T09:29:16.716Z,33.60
2022-11-05T09:34:19.613Z,23.60
2022-11-05T09:39:22.986Z,34.50
2022-11-05T09:45:00.612Z,31.60
2022-11-05T09:50:14.349Z,29.60
2022-11-05T09:55:37.281Z,26.10
2022-11-05T10:00:41.100Z,27.80
2022-11-05T10:06:08.600Z,21.60
2022-11-05T10:11:21.946Z,23.40
2022-11-05T10:16:39.162Z,24.10
2022-11-05T10:22:05.702Z,23.60
2022-11-05T10:27:06.473Z,23.40
2022-11-05T10:32:25.753Z,27.30
2022-11-05T10:37:30.403Z,26.20
2022-11-05T10:42:55.919Z,27.20
2022-11-05T10:48:23.505Z,26.80
2022-11-05T10:53:32.110Z,25.90
2022-11-05T10:58:37.200Z,26.40
2022-11-05T11:04:00.305Z,35.60
2022-11-05T11:09:08.653Z,39.30
2022-11-05T11:14:14.620Z,30.00
2022-11-05T11:19:20.561Z,26.00
2022-11-05T11:24:23.503Z,37.40
2022-11-05T11:29:28.608Z,83.50
2022-11-05T11:34:38.863Z,62.20
2022-11-05T11:39:48.504Z,35.70
2022-11-05T11:44:52.208Z,50.00
2022-11-05T11:49:58.673Z,36.00
2022-11-05T11:55:13.643Z,22.90
2022-11-05T12:00:18.958Z,41.40
2022-11-05T12:05:38.027Z,27.10
2022-11-05T12:11:08.713Z,28.20
2022-11-05T12:16:29.317Z,30.10
2022-11-05T12:21:53.051Z,27.10
2022-11-05T12:27:44.745Z,23.90
2022-11-05T12:33:16.062Z,19.70
2022-11-05T12:38:55.733Z,23.50
2022-11-05T12:44:29.753Z,20.70
2022-11-05T12:50:00.108Z,25.80
2022-11-05T12:55:09.930Z,21.10
2022-11-05T13:00:27.048Z,23.40
2022-11-05T13:05:48.236Z,24.10
2022-11-05T13:11:03.117Z,17.10
2022-11-05T13:16:34.264Z,15.70
2022-11-05T13:21:40.312Z,12.00
2022-11-05T13:26:52.715Z,17.60
2022-11-05T13:32:04.835Z,20.50
2022-11-05T13:37:28.211Z,19.60
2022-11-05T13:42:44.467Z,24.50
2022-11-05T13:48:25.140Z,16.30
2022-11-05T13:53:55.626Z,13.50
2022-11-05T13:59:49.700Z,17.70
2022-11-05T14:05:00.995Z,16.10
2022-11-05T14:10:38.165Z,17.60
2022-11-05T14:15:56.797Z,21.70
2022-11-05T14:21:03.085Z,98.70
2022-11-05T14:26:26.723Z,46.10
2022-11-05T14:32:08.743Z,20.70
2022-11-05T14:37:12.746Z,18.60
2022-11-05T14:42:24.991Z,33.50
2022-11-05T14:47:34.382Z,22.30
2022-11-05T14:52:40.647Z,15.60
2022-11-05T14:57:43.490Z,19.70
2022-11-05T15:03:05.429Z,18.20
2022-11-05T15:08:24.737Z,11.30
2022-11-05T15:13:55.445Z,14.60
2022-11-05T15:18:59.991Z,14.00
2022-11-05T15:24:04.789Z,16.20
2022-11-05T15:29:24.874Z,13.90
2022-11-05T15:34:32.797Z,14.30
2022-11-05T15:39:39.254Z,9.80
2022-11-05T15:44:47.216Z,16.50
2022-11-05T15:50:01.465Z,14.70
2022-11-05T15:55:14.720Z,13.40
2022-11-05T16:00:26.025Z,15.00
2022-11-05T16:05:34.148Z,18.80
2022-11-05T16:10:39.110Z,19.60
2022-11-05T16:15:55.522Z,26.00
2022-11-05T16:21:04.179Z,30.90
2022-11-05T16:31:57.378Z,19.90
2022-11-05T16:37:00.534Z,23.10
2022-11-05T16:42:23.439Z,22.00
2022-11-05T16:47:26.604Z,18.50
2022-11-05T16:52:29.834Z,29.90
2022-11-05T16:57:33.327Z,26.00
2022-11-05T17:02:36.364Z,18.00
2022-11-05T17:07:41.513Z,24.70
2022-11-05T17:12:45.701Z,25.90
2022-11-05T17:17:49.764Z,23.10
2022-11-05T17:22:52.654Z,25.40
2022-11-05T17:27:55.982Z,21.50
2022-11-05T17:32:59.315Z,18.30
2022-11-05T17:38:02.352Z,23.30
2022-11-05T17:43:06.169Z,27.70
2022-11-05T17:48:13.432Z,26.50
2022-11-05T17:53:19.261Z,41.80
2022-11-05T17:58:22.333Z,44.30
2022-11-05T18:03:25.247Z,32.00
2022-11-05T18:08:28.153Z,32.00
2022-11-05T18:13:31.010Z,29.50
2022-11-05T18:18:34.023Z,17.20
2022-11-05T18:23:36.938Z,18.50
2022-11-05T18:28:40.735Z,17.00
2022-11-05T18:33:44.123Z,14.00
2022-11-05T18:38:48.095Z,16.60
2022-11-05T18:43:51.461Z,17.80
2022-11-05T18:48:54.467Z,17.90
2022-11-05T18:53:58.680Z,16.90
2022-11-05T18:59:29.987Z,14.30
2022-11-05T19:04:26.327Z,14.00
2022-11-05T19:09:29.399Z,14.00
2022-11-05T19:14:32.752Z,12.10
2022-11-05T19:19:35.759Z,13.90
2022-11-05T19:24:38.774Z,12.80
2022-11-05T19:29:41.679Z,12.60
2022-11-05T19:34:44.583Z,13.40
2022-11-05T19:39:47.546Z,15.20
2022-11-05T19:44:50.429Z,19.30
2022-11-05T19:49:53.352Z,23.70
2022-11-05T19:54:56.240Z,25.40
2022-11-05T19:59:59.130Z,25.00
2022-11-05T20:05:02.032Z,31.70
2022-11-05T20:10:06.770Z,21.60
2022-11-05T20:15:10.237Z,20.00
2022-11-05T20:20:13.141Z,20.90
2022-11-05T20:25:16.095Z,22.20
2022-11-05T20:30:20.142Z,32.60
2022-11-05T20:35:24.354Z,43.60
2022-11-05T20:40:27.393Z,41.30
2022-11-05T20:45:30.493Z,31.30
2022-11-05T20:50:33.885Z,29.20
2022-11-05T20:55:45.228Z,23.80
2022-11-05T21:00:53.109Z,32.90
2022-11-05T21:06:00.060Z,30.50
2022-11-05T21:11:03.765Z,35.30
2022-11-05T21:16:14.028Z,27.60
2022-11-05T21:21:20.913Z,24.50
2022-11-05T21:26:23.913Z,19.90
2022-11-05T21:31:26.779Z,25.20
2022-11-05T21:36:30.179Z,26.60
2022-11-05T21:41:33.093Z,20.70
2022-11-05T21:46:37.795Z,24.50
2022-11-05T21:51:59.431Z,17.10
2022-11-05T21:57:21.090Z,18.80
2022-11-05T22:02:25.533Z,13.60
2022-11-05T22:07:38.833Z,12.50
2022-11-05T22:12:41.794Z,12.10
2022-11-05T22:17:47.211Z,15.80
2022-11-05T22:22:50.262Z,27.10
2022-11-05T22:27:53.178Z,21.50
2022-11-05T22:32:56.051Z,24.70
2022-11-05T22:37:58.893Z,31.90
2022-11-05T22:43:01.818Z,17.00
2022-11-05T22:48:06.994Z,12.70
2022-11-05T22:53:10.134Z,12.00
2022-11-05T22:58:13.378Z,12.40
2022-11-05T23:03:16.667Z,10.10
2022-11-05T23:08:37.940Z,10.70
2022-11-05T23:13:40.778Z,13.40
2022-11-05T23:19:02.046Z,14.40
2022-11-05T23:24:05.812Z,11.90
2022-11-05T23:29:08.712Z,9.00
2022-11-05T23:34:11.610Z,9.40
2022-11-05T23:39:14.811Z,8.60
2022-11-05T23:44:36.505Z,10.90
2022-11-05T23:49:39.407Z,10.60
2022-11-05T23:54:42.263Z,12.40
2022-11-05T23:59:45.121Z,12.00
